Time;durP1;ratioP1;P1;durP2;ratioP2;P2;SDS_P1;SDS_P2;PMS_P1;PMS_P2;Temp;Humidity;BMP_temperature;BMP_pressure;BME280_temperature;BME280_humidity;BME280_pressure;Samples;Min_cycle;Max_cycle;Signal;HPM_P1;HPM_P2
2021/01/03 00:00:32;;;;;;;36.83;20.45;;;;;;;;;;5076082;28;20192;-75
2021/01/03 00:02:58;;;;;;;39.28;23.25;;;;;;;;;;5089410;28;20815;-73
2021/01/03 00:05:26;;;;;;;41.20;23.45;;;;;;;;;;5088258;28;20711;-73
2021/01/03 00:07:52;;;;;;;34.72;20.77;;;;;;;;;;5089269;28;20201;-75
2021/01/03 00:10:19;;;;;;;36.70;21.38;;;;;;;;;;5087807;28;20210;-76
2021/01/03 00:12:45;;;;;;;37.92;20.83;;;;;;;;;;5069683;28;20215;-73
2021/01/03 00:15:16;;;;;;;38.70;22.15;;;;;;;;;;5076640;28;20655;-75
2021/01/03 00:17:43;;;;;;;37.63;21.20;;;;;;;;;;5069353;28;20218;-74
2021/01/03 00:20:12;;;;;;;40.60;21.05;;;;;;;;;;5075788;28;20195;-75
2021/01/03 00:22:38;;;;;;;38.00;22.45;;;;;;;;;;5076552;28;20262;-75
2021/01/03 00:25:06;;;;;;;35.03;20.98;;;;;;;;;;5088587;28;20210;-76
2021/01/03 00:27:32;;;;;;;39.03;22.92;;;;;;;;;;5076557;28;20187;-76
2021/01/03 00:29:58;;;;;;;39.17;22.52;;;;;;;;;;5074263;28;20229;-75
2021/01/03 00:32:24;;;;;;;34.45;20.88;;;;;;;;;;5089271;28;20234;-72
2021/01/03 00:34:50;;;;;;;38.60;21.55;;;;;;;;;;5088193;28;20186;-75
2021/01/03 00:37:21;;;;;;;40.00;22.52;;;;;;;;;;5089431;28;20556;-73
2021/01/03 00:39:47;;;;;;;43.58;23.02;;;;;;;;;;5081093;28;20530;-75
2021/01/03 00:42:13;;;;;;;38.65;23.10;;;;;;;;;;5089048;28;20183;-76
2021/01/03 00:44:39;;;;;;;41.47;23.83;;;;;;;;;;5072960;28;20180;-75
2021/01/03 00:47:05;;;;;;;40.20;24.10;;;;;;;;;;5072681;28;20240;-73
2021/01/03 00:49:31;;;;;;;47.95;24.27;;;;;;;;;;5072024;28;20210;-76
2021/01/03 00:51:57;;;;;;;46.30;26.30;;;;;;;;;;5081593;28;20199;-74
2021/01/03 00:54:23;;;;;;;48.70;25.13;;;;;;;;;;5085494;28;20214;-73
2021/01/03 00:56:49;;;;;;;43.15;24.88;;;;;;;;;;5083663;28;20244;-74
2021/01/03 00:59:15;;;;;;;47.05;25.13;;;;;;;;;;5085468;28;20199;-75
2021/01/03 01:01:41;;;;;;;47.78;25.42;;;;;;;;;;5093697;28;20191;-72
2021/01/03 01:04:07;;;;;;;48.03;26.10;;;;;;;;;;5096020;28;20180;-74
2021/01/03 01:06:33;;;;;;;49.75;27.02;;;;;;;;;;5089273;28;20199;-75
2021/01/03 01:08:59;;;;;;;52.63;26.00;;;;;;;;;;5083075;28;20175;-73
2021/01/03 01:11:25;;;;;;;42.78;24.17;;;;;;;;;;5087962;28;20579;-76
2021/01/03 01:13:51;;;;;;;46.50;26.20;;;;;;;;;;5075672;28;20204;-73
2021/01/03 01:16:17;;;;;;;46.25;25.35;;;;;;;;;;5075897;28;20522;-75
2021/01/03 01:18:43;;;;;;;49.47;26.50;;;;;;;;;;5094592;28;20171;-73
2021/01/03 01:21:09;;;;;;;48.35;26.00;;;;;;;;;;5095658;28;20195;-75
2021/01/03 01:23:35;;;;;;;45.42;25.58;;;;;;;;;;5095778;28;20179;-74
2021/01/03 01:26:02;;;;;;;45.60;25.05;;;;;;;;;;5096303;28;20184;-75
2021/01/03 01:28:28;;;;;;;42.58;23.52;;;;;;;;;;5086820;28;20537;-74
2021/01/03 01:30:54;;;;;;;42.90;23.83;;;;;;;;;;5082517;28;20553;-74
2021/01/03 01:33:20;;;;;;;46.10;25.10;;;;;;;;;;5095916;28;20703;-72
2021/01/03 01:35:47;;;;;;;45.10;24.67;;;;;;;;;;5095306;28;20640;-75
2021/01/03 01:38:13;;;;;;;46.40;24.05;;;;;;;;;;5095955;28;20233;-76
2021/01/03 01:40:40;;;;;;;46.42;24.88;;;;;;;;;;5095454;28;20219;-74
2021/01/03 01:43:07;;;;;;;47.13;26.02;;;;;;;;;;5095922;28;20180;-74
2021/01/03 01:45:34;;;;;;;43.55;24.83;;;;;;;;;;5095626;28;20191;-75
2021/01/03 01:48:04;;;;;;;43.17;23.45;;;;;;;;;;5095743;28;20179;-73
2021/01/03 01:50:36;;;;;;;49.00;25.40;;;;;;;;;;5095420;28;20268;-76
2021/01/03 01:53:05;;;;;;;45.85;23.98;;;;;;;;;;5095230;28;20217;-74
2021/01/03 01:55:33;;;;;;;51.13;23.75;;;;;;;;;;5077531;28;20202;-76
2021/01/03 01:58:06;;;;;;;48.08;24.17;;;;;;;;;;5075346;28;20229;-75
2021/01/03 02:00:33;;;;;;;46.28;23.95;;;;;;;;;;5074883;28;20584;-73
2021/01/03 02:03:11;;;;;;;43.33;25.52;;;;;;;;;;5093621;28;20183;-75
2021/01/03 02:05:42;;;;;;;39.97;23.77;;;;;;;;;;5094712;28;20175;-76
2021/01/03 02:08:12;;;;;;;42.28;23.17;;;;;;;;;;5080807;28;20218;-73
2021/01/03 02:10:40;;;;;;;46.03;24.77;;;;;;;;;;5101121;28;20240;-74
2021/01/03 02:13:18;;;;;;;45.70;23.42;;;;;;;;;;5094795;28;20207;-76
2021/01/03 02:15:44;;;;;;;42.55;24.00;;;;;;;;;;5094598;28;20171;-75
2021/01/03 02:18:11;;;;;;;43.80;24.60;;;;;;;;;;5095279;28;20175;-74
2021/01/03 02:21:12;;;;;;;43.22;23.17;;;;;;;;;;5091641;28;20191;-75
2021/01/03 02:23:41;;;;;;;44.30;23.90;;;;;;;;;;5086579;28;20240;-75
2021/01/03 02:26:08;;;;;;;45.33;25.40;;;;;;;;;;5081454;28;20184;-75
2021/01/03 02:28:38;;;;;;;47.78;26.23;;;;;;;;;;5088280;28;20202;-77
2021/01/03 02:31:04;;;;;;;53.35;26.90;;;;;;;;;;5074476;28;20204;-75
2021/01/03 02:33:37;;;;;;;49.55;25.60;;;;;;;;;;5074077;28;20668;-74
2021/01/03 02:36:06;;;;;;;49.58;25.50;;;;;;;;;;5074366;28;20172;-74
2021/01/03 02:38:34;;;;;;;49.90;26.13;;;;;;;;;;5088138;28;20210;-75
2021/01/03 02:41:00;;;;;;;47.58;25.65;;;;;;;;;;5094917;28;20203;-75
2021/01/03 02:43:26;;;;;;;48.45;25.45;;;;;;;;;;5094330;28;20175;-74
2021/01/03 02:45:52;;;;;;;46.78;26.23;;;;;;;;;;5094191;28;20181;-75
2021/01/03 02:48:20;;;;;;;45.42;23.75;;;;;;;;;;5094188;28;20167;-75
2021/01/03 02:50:46;;;;;;;44.05;24.42;;;;;;;;;;5094140;28;20199;-73
2021/01/03 02:53:12;;;;;;;47.72;25.23;;;;;;;;;;5093952;28;20199;-73
2021/01/03 02:55:38;;;;;;;47.72;26.17;;;;;;;;;;5083522;28;20195;-74
2021/01/03 02:58:05;;;;;;;53.65;27.30;;;;;;;;;;5083618;28;20168;-73
2021/01/03 03:00:36;;;;;;;51.38;26.23;;;;;;;;;;5093923;28;20199;-73
2021/01/03 03:03:03;;;;;;;55.58;28.20;;;;;;;;;;5076094;28;20172;-75
2021/01/03 03:05:29;;;;;;;52.38;27.00;;;;;;;;;;5075124;28;20652;-75
2021/01/03 03:07:55;;;;;;;52.85;28.33;;;;;;;;;;5092148;28;20187;-75
2021/01/03 03:10:22;;;;;;;51.80;24.80;;;;;;;;;;5082539;28;20279;-75
2021/01/03 03:12:49;;;;;;;47.65;25.35;;;;;;;;;;5079549;28;20595;-74
2021/01/03 03:15:15;;;;;;;53.75;27.42;;;;;;;;;;5076658;28;20203;-76
2021/01/03 03:17:41;;;;;;;55.25;27.38;;;;;;;;;;5080112;28;20186;-73
2021/01/03 03:20:08;;;;;;;53.17;25.42;;;;;;;;;;5093731;28;20191;-74
2021/01/03 03:22:34;;;;;;;47.63;24.77;;;;;;;;;;5091446;28;20623;-74
2021/01/03 03:25:00;;;;;;;54.65;25.05;;;;;;;;;;5092934;28;20236;-76
2021/01/03 03:27:26;;;;;;;49.38;25.55;;;;;;;;;;5093346;28;20628;-73
2021/01/03 03:29:52;;;;;;;53.38;26.95;;;;;;;;;;5093242;28;20175;-74
2021/01/03 03:32:18;;;;;;;47.63;23.95;;;;;;;;;;5085283;28;20628;-75
2021/01/03 03:34:44;;;;;;;52.00;24.92;;;;;;;;;;5074846;28;20255;-76
2021/01/03 03:37:10;;;;;;;49.00;25.60;;;;;;;;;;5093451;28;20203;-76
2021/01/03 03:39:36;;;;;;;46.83;24.23;;;;;;;;;;5091401;28;20175;-74
2021/01/03 03:42:02;;;;;;;49.53;24.80;;;;;;;;;;5088774;28;20202;-74
2021/01/03 03:44:29;;;;;;;48.92;26.40;;;;;;;;;;5093345;28;20183;-76
2021/01/03 03:46:57;;;;;;;46.83;24.25;;;;;;;;;;5093190;28;20184;-76
2021/01/03 03:49:23;;;;;;;47.42;25.00;;;;;;;;;;5079057;28;20229;-76
2021/01/03 03:51:53;;;;;;;42.15;22.90;;;;;;;;;;5078114;28;20211;-75
2021/01/03 03:54:19;;;;;;;43.97;24.05;;;;;;;;;;5077514;28;20575;-73
2021/01/03 03:56:52;;;;;;;43.78;22.17;;;;;;;;;;5073441;28;20168;-74
2021/01/03 03:59:18;;;;;;;49.22;23.88;;;;;;;;;;5077646;28;20309;-76
2021/01/03 04:01:44;;;;;;;40.80;23.50;;;;;;;;;;5075143;28;20571;-78
2021/01/03 04:04:11;;;;;;;42.67;23.55;;;;;;;;;;5072505;28;20283;-74
2021/01/03 04:06:37;;;;;;;40.28;21.42;;;;;;;;;;5082043;28;20187;-74
2021/01/03 04:09:04;;;;;;;41.78;22.77;;;;;;;;;;5084793;28;20197;-73
2021/01/03 04:11:30;;;;;;;36.83;20.90;;;;;;;;;;5083594;28;20192;-74
2021/01/03 04:13:56;;;;;;;42.30;22.50;;;;;;;;;;5072210;28;20208;-74
2021/01/03 04:16:22;;;;;;;36.00;19.27;;;;;;;;;;5081438;28;20176;-73
2021/01/03 04:18:48;;;;;;;42.83;21.13;;;;;;;;;;5073173;28;20226;-76
2021/01/03 04:21:14;;;;;;;33.80;19.80;;;;;;;;;;5086239;28;20198;-77
2021/01/03 04:23:43;;;;;;;35.78;20.17;;;;;;;;;;5080242;28;20241;-76
2021/01/03 04:26:15;;;;;;;40.30;20.80;;;;;;;;;;5085988;28;20176;-72
2021/01/03 04:28:41;;;;;;;37.97;20.23;;;;;;;;;;5093761;28;20190;-74
2021/01/03 04:31:07;;;;;;;38.00;19.05;;;;;;;;;;5092613;28;20191;-76
2021/01/03 04:33:33;;;;;;;36.78;19.92;;;;;;;;;;5079009;28;20238;-72
2021/01/03 04:35:59;;;;;;;33.35;19.52;;;;;;;;;;5078946;28;20180;-75
2021/01/03 04:38:27;;;;;;;35.80;19.33;;;;;;;;;;5094860;28;20255;-73
2021/01/03 04:40:56;;;;;;;32.13;17.50;;;;;;;;;;5092469;28;20245;-74
2021/01/03 04:43:22;;;;;;;33.97;18.85;;;;;;;;;;5096813;28;20225;-75
2021/01/03 04:45:51;;;;;;;33.08;16.98;;;;;;;;;;5096311;28;20637;-72
2021/01/03 04:48:22;;;;;;;33.25;16.98;;;;;;;;;;5095731;28;20199;-73
2021/01/03 04:50:51;;;;;;;32.30;18.45;;;;;;;;;;5096641;28;20195;-73
2021/01/03 04:53:17;;;;;;;33.65;17.50;;;;;;;;;;5096008;28;20545;-75
2021/01/03 04:55:48;;;;;;;31.90;17.48;;;;;;;;;;5096446;28;20655;-75
2021/01/03 04:58:14;;;;;;;36.30;19.23;;;;;;;;;;5096345;28;20497;-76
2021/01/03 05:00:48;;;;;;;33.15;17.85;;;;;;;;;;5096601;28;20200;-75
2021/01/03 05:03:14;;;;;;;29.50;17.27;;;;;;;;;;5079083;28;20176;-74
2021/01/03 05:05:45;;;;;;;33.42;17.52;;;;;;;;;;5095188;28;20179;-76
2021/01/03 05:08:11;;;;;;;34.80;17.58;;;;;;;;;;5078291;28;20552;-76
2021/01/03 05:10:37;;;;;;;31.17;19.25;;;;;;;;;;5090697;28;20283;-75
2021/01/03 05:13:03;;;;;;;31.88;16.85;;;;;;;;;;5076193;28;20210;-75
2021/01/03 05:15:33;;;;;;;28.40;16.52;;;;;;;;;;5091254;28;20171;-75
2021/01/03 05:17:59;;;;;;;26.02;15.00;;;;;;;;;;5077432;28;20313;-76
2021/01/03 05:20:25;;;;;;;26.08;15.45;;;;;;;;;;5080846;28;20226;-74
2021/01/03 05:22:51;;;;;;;25.85;13.85;;;;;;;;;;5084468;28;20517;-75
2021/01/03 05:25:18;;;;;;;26.05;16.10;;;;;;;;;;5086994;28;20197;-74
2021/01/03 05:28:01;;;;;;;26.17;14.60;;;;;;;;;;5082628;28;20633;-74
2021/01/03 05:30:28;;;;;;;22.75;14.60;;;;;;;;;;5092846;28;20199;-74
2021/01/03 05:33:03;;;;;;;24.17;14.27;;;;;;;;;;5096357;28;20195;-75
2021/01/03 05:35:34;;;;;;;25.35;14.60;;;;;;;;;;5092776;28;20217;-75
2021/01/03 05:38:02;;;;;;;20.92;13.43;;;;;;;;;;5075671;28;20575;-73
2021/01/03 05:40:31;;;;;;;22.48;14.93;;;;;;;;;;5086205;28;20187;-74
2021/01/03 05:43:11;;;;;;;30.13;14.95;;;;;;;;;;5095918;28;20186;-78
2021/01/03 05:45:40;;;;;;;27.33;14.70;;;;;;;;;;5089234;28;20586;-74
2021/01/03 05:48:07;;;;;;;24.48;13.98;;;;;;;;;;5075664;28;20258;-75
2021/01/03 05:50:35;;;;;;;24.92;14.98;;;;;;;;;;5085244;28;20253;-74
2021/01/03 05:53:06;;;;;;;25.50;14.63;;;;;;;;;;5084670;28;20195;-74
2021/01/03 05:55:33;;;;;;;26.55;14.23;;;;;;;;;;5077967;28;20180;-74
2021/01/03 05:58:20;;;;;;;20.98;14.05;;;;;;;;;;5075484;28;20168;-75
2021/01/03 06:00:46;;;;;;;22.05;14.40;;;;;;;;;;5078603;28;20287;-73
2021/01/03 06:03:18;;;;;;;21.80;15.10;;;;;;;;;;5075081;28;20199;-76
2021/01/03 06:05:46;;;;;;;20.67;13.70;;;;;;;;;;5093021;28;20216;-76
2021/01/03 06:08:15;;;;;;;21.67;13.88;;;;;;;;;;5095216;28;20248;-72
2021/01/03 06:10:42;;;;;;;20.15;14.20;;;;;;;;;;5095065;28;20195;-74
2021/01/03 06:13:09;;;;;;;23.25;15.27;;;;;;;;;;5094976;28;20195;-74
2021/01/03 06:16:01;;;;;;;22.08;14.25;;;;;;;;;;5092819;28;20578;-76
2021/01/03 06:18:27;;;;;;;22.65;14.23;;;;;;;;;;5094776;28;20222;-75
2021/01/03 06:20:53;;;;;;;22.15;14.40;;;;;;;;;;5082858;28;20227;-75
2021/01/03 06:23:22;;;;;;;21.08;14.15;;;;;;;;;;5088042;28;20595;-73
2021/01/03 06:25:54;;;;;;;20.15;13.32;;;;;;;;;;5094401;28;20182;-72
2021/01/03 06:28:23;;;;;;;19.17;13.75;;;;;;;;;;5092180;28;20172;-75
2021/01/03 06:30:53;;;;;;;23.90;14.52;;;;;;;;;;5085399;28;20208;-73
2021/01/03 06:33:36;;;;;;;19.20;12.82;;;;;;;;;;5093516;28;20203;-74
2021/01/03 06:36:10;;;;;;;20.02;12.90;;;;;;;;;;5074699;28;20180;-74
2021/01/03 06:38:55;;;;;;;19.33;12.95;;;;;;;;;;5080569;28;20187;-75
2021/01/03 06:41:27;;;;;;;19.58;12.50;;;;;;;;;;5089453;28;20218;-75
2021/01/03 06:44:06;;;;;;;21.20;12.90;;;;;;;;;;5084369;28;20192;-73
2021/01/03 06:46:32;;;;;;;18.90;12.35;;;;;;;;;;5089673;28;20193;-74
2021/01/03 06:49:18;;;;;;;20.17;12.95;;;;;;;;;;5094333;28;20182;-72
2021/01/03 06:51:59;;;;;;;19.00;13.27;;;;;;;;;;5093988;28;20202;-74
2021/01/03 06:54:33;;;;;;;17.80;12.05;;;;;;;;;;5082089;28;20570;-73
2021/01/03 06:56:59;;;;;;;20.02;12.85;;;;;;;;;;5094281;28;20232;-76
2021/01/03 06:59:41;;;;;;;20.75;12.77;;;;;;;;;;5084397;28;20176;-75
2021/01/03 07:02:07;;;;;;;20.40;13.60;;;;;;;;;;5090694;28;20544;-76
2021/01/03 07:04:35;;;;;;;21.30;13.75;;;;;;;;;;5081701;28;20207;-76
2021/01/03 07:07:03;;;;;;;20.08;13.32;;;;;;;;;;5073822;28;20184;-74
2021/01/03 07:09:29;;;;;;;20.52;13.52;;;;;;;;;;5088147;28;20186;-73
2021/01/03 07:11:59;;;;;;;19.95;11.82;;;;;;;;;;5093869;28;20191;-72
2021/01/03 07:14:25;;;;;;;16.95;12.50;;;;;;;;;;5080974;28;20637;-74
2021/01/03 07:16:56;;;;;;;19.73;13.07;;;;;;;;;;5093437;28;20195;-75
2021/01/03 07:19:25;;;;;;;21.52;13.05;;;;;;;;;;5093546;28;20171;-73
2021/01/03 07:21:51;;;;;;;21.33;14.15;;;;;;;;;;5090387;28;20190;-73
2021/01/03 07:24:30;;;;;;;19.35;12.80;;;;;;;;;;5087075;28;20262;-74
2021/01/03 07:27:15;;;;;;;20.30;13.10;;;;;;;;;;5093557;28;20185;-74
2021/01/03 07:30:10;;;;;;;20.95;14.55;;;;;;;;;;5091252;28;20179;-75
2021/01/03 07:32:39;;;;;;;19.77;12.93;;;;;;;;;;5091491;28;20295;-74
2021/01/03 07:35:05;;;;;;;20.85;13.07;;;;;;;;;;5092947;28;20179;-72
2021/01/03 07:37:32;;;;;;;17.13;12.18;;;;;;;;;;5085748;28;20652;-75
2021/01/03 07:39:58;;;;;;;20.35;13.40;;;;;;;;;;5093318;28;20570;-77
2021/01/03 07:42:26;;;;;;;20.98;12.82;;;;;;;;;;5093411;28;20179;-74
2021/01/03 07:44:53;;;;;;;18.45;11.20;;;;;;;;;;5092913;28;20183;-75
2021/01/03 07:47:36;;;;;;;19.20;11.98;;;;;;;;;;5093686;28;20564;-75
2021/01/03 07:50:18;;;;;;;18.35;11.13;;;;;;;;;;5080412;28;20676;-73
2021/01/03 07:52:45;;;;;;;18.25;12.10;;;;;;;;;;5088139;28;20659;-75
2021/01/03 07:55:24;;;;;;;16.83;10.98;;;;;;;;;;5082862;28;20510;-76
2021/01/03 07:57:58;;;;;;;16.83;10.00;;;;;;;;;;5073545;28;20266;-75
2021/01/03 08:00:24;;;;;;;16.73;10.20;;;;;;;;;;5073018;28;20219;-74
2021/01/03 08:02:54;;;;;;;15.55;10.13;;;;;;;;;;5091455;28;20224;-74
2021/01/03 08:05:21;;;;;;;16.30;10.48;;;;;;;;;;5093043;28;20222;-75
2021/01/03 08:07:47;;;;;;;15.80;10.82;;;;;;;;;;5092644;28;20198;-73
2021/01/03 08:10:13;;;;;;;13.75;10.35;;;;;;;;;;5092672;28;20206;-74
2021/01/03 08:12:56;;;;;;;18.65;10.32;;;;;;;;;;5093150;28;20226;-74
2021/01/03 08:15:30;;;;;;;16.75;11.52;;;;;;;;;;5085223;28;20576;-75
2021/01/03 08:18:07;;;;;;;13.57;9.55;;;;;;;;;;5087841;28;20179;-75
2021/01/03 08:20:34;;;;;;;13.65;9.50;;;;;;;;;;5088768;28;20595;-77
2021/01/03 08:23:10;;;;;;;16.95;9.80;;;;;;;;;;5091767;28;20187;-74
2021/01/03 08:25:36;;;;;;;14.38;9.27;;;;;;;;;;5089904;28;20232;-73
2021/01/03 08:28:11;;;;;;;14.10;10.45;;;;;;;;;;5091557;28;20187;-75
2021/01/03 08:30:38;;;;;;;14.20;10.02;;;;;;;;;;5072605;28;20210;-73
2021/01/03 08:33:34;;;;;;;14.55;10.45;;;;;;;;;;5085546;28;20696;-74
2021/01/03 08:36:13;;;;;;;13.23;9.63;;;;;;;;;;5083781;28;20241;-74
2021/01/03 08:38:39;;;;;;;14.27;10.18;;;;;;;;;;5079970;28;20247;-74
2021/01/03 08:41:07;;;;;;;16.80;11.02;;;;;;;;;;5090890;28;20731;-74
2021/01/03 08:43:34;;;;;;;13.13;9.75;;;;;;;;;;5078471;28;20188;-75
2021/01/03 08:46:01;;;;;;;15.25;10.70;;;;;;;;;;5088389;28;20184;-75
2021/01/03 08:48:27;;;;;;;14.45;10.23;;;;;;;;;;5078996;28;20325;-75
2021/01/03 08:51:05;;;;;;;14.38;10.70;;;;;;;;;;5081426;28;20204;-76
2021/01/03 08:53:31;;;;;;;13.75;10.50;;;;;;;;;;5087749;28;20199;-77
2021/01/03 08:56:10;;;;;;;18.33;11.35;;;;;;;;;;5092433;28;20254;-74
2021/01/03 08:58:37;;;;;;;12.73;9.50;;;;;;;;;;5092990;28;20616;-74
2021/01/03 09:01:04;;;;;;;14.73;9.82;;;;;;;;;;5092391;28;20195;-75
2021/01/03 09:03:32;;;;;;;12.40;9.43;;;;;;;;;;5092559;28;20183;-75
2021/01/03 09:05:58;;;;;;;12.25;8.88;;;;;;;;;;5092214;28;20191;-77
2021/01/03 09:08:27;;;;;;;13.05;9.07;;;;;;;;;;5091789;28;20195;-76
2021/01/03 09:11:01;;;;;;;13.32;10.00;;;;;;;;;;5094524;28;20553;-77
2021/01/03 09:13:28;;;;;;;13.07;9.38;;;;;;;;;;5094586;28;20199;-75
2021/01/03 09:16:12;;;;;;;13.93;9.15;;;;;;;;;;5095764;28;20648;-74
2021/01/03 09:18:43;;;;;;;13.88;9.48;;;;;;;;;;5083728;28;20525;-74
2021/01/03 09:21:11;;;;;;;12.65;9.40;;;;;;;;;;5096131;28;20222;-74
2021/01/03 09:23:41;;;;;;;12.25;8.52;;;;;;;;;;5096138;28;20182;-75
2021/01/03 09:26:09;;;;;;;11.57;9.07;;;;;;;;;;5090544;28;20186;-74
2021/01/03 09:28:36;;;;;;;10.55;8.20;;;;;;;;;;5087001;28;20640;-74
2021/01/03 09:31:18;;;;;;;11.10;6.72;;;;;;;;;;5088285;28;20286;-75
2021/01/03 09:33:54;;;;;;;10.27;7.75;;;;;;;;;;5095605;28;20291;-74
2021/01/03 09:36:39;;;;;;;9.77;7.43;;;;;;;;;;5095013;28;20655;-76
2021/01/03 09:39:23;;;;;;;9.18;6.97;;;;;;;;;;5093749;28;20179;-75
2021/01/03 09:42:16;;;;;;;9.05;7.05;;;;;;;;;;5075852;28;20553;-76
2021/01/03 09:44:51;;;;;;;10.80;7.35;;;;;;;;;;5099034;28;20180;-77
2021/01/03 09:47:17;;;;;;;9.20;7.22;;;;;;;;;;5075581;28;20195;-76
2021/01/03 09:49:48;;;;;;;8.15;6.38;;;;;;;;;;5075471;28;20183;-77
2021/01/03 09:52:23;;;;;;;7.63;6.40;;;;;;;;;;5080646;28;20519;-76
2021/01/03 09:54:59;;;;;;;7.45;6.65;;;;;;;;;;5095173;28;20287;-74
2021/01/03 09:57:34;;;;;;;7.70;5.75;;;;;;;;;;5095690;28;20178;-76
2021/01/03 10:00:01;;;;;;;6.00;5.03;;;;;;;;;;5093151;28;20199;-76
2021/01/03 10:02:27;;;;;;;7.13;5.38;;;;;;;;;;5084240;28;20525;-75
2021/01/03 10:04:54;;;;;;;5.15;4.65;;;;;;;;;;5095172;28;20194;-75
2021/01/03 10:07:23;;;;;;;9.40;4.90;;;;;;;;;;5095389;28;20191;-76
2021/01/03 10:09:56;;;;;;;5.63;4.90;;;;;;;;;;5099817;28;20182;-76
2021/01/03 10:12:27;;;;;;;4.93;4.53;;;;;;;;;;5074773;28;20177;-74
2021/01/03 10:15:05;;;;;;;5.78;5.20;;;;;;;;;;5074655;28;20541;-75
2021/01/03 10:17:31;;;;;;;4.60;4.10;;;;;;;;;;5073410;28;20191;-72
2021/01/03 10:19:57;;;;;;;4.80;4.28;;;;;;;;;;5074866;28;20164;-74
2021/01/03 10:22:30;;;;;;;4.25;3.85;;;;;;;;;;5074776;28;20229;-75
2021/01/03 10:24:57;;;;;;;4.10;3.78;;;;;;;;;;5074292;28;20180;-73
2021/01/03 10:27:24;;;;;;;5.25;4.75;;;;;;;;;;5074830;28;20194;-75
2021/01/03 10:29:50;;;;;;;17.20;13.75;;;;;;;;;;5087288;28;20176;-73
2021/01/03 10:32:16;;;;;;;6.10;5.50;;;;;;;;;;5074387;28;20253;-75
2021/01/03 10:34:42;;;;;;;6.85;6.25;;;;;;;;;;5074015;28;20570;-75
2021/01/03 10:37:08;;;;;;;6.88;6.18;;;;;;;;;;5074145;28;20183;-73
2021/01/03 10:39:35;;;;;;;5.60;4.85;;;;;;;;;;5074304;28;20187;-73
2021/01/03 10:42:07;;;;;;;5.72;5.22;;;;;;;;;;5075075;28;20192;-74
2021/01/03 10:44:34;;;;;;;5.93;5.32;;;;;;;;;;5094428;28;20172;-72
2021/01/03 10:47:00;;;;;;;4.25;3.95;;;;;;;;;;5094563;28;20175;-74
2021/01/03 10:49:26;;;;;;;4.13;3.72;;;;;;;;;;5094388;28;20168;-72
2021/01/03 10:51:52;;;;;;;3.42;3.13;;;;;;;;;;5080580;28;20653;-75
2021/01/03 10:54:22;;;;;;;5.35;4.85;;;;;;;;;;5094050;28;20548;-72
2021/01/03 10:56:49;;;;;;;5.20;4.32;;;;;;;;;;5094304;28;20254;-74
2021/01/03 10:59:15;;;;;;;3.30;2.92;;;;;;;;;;5094460;28;20183;-72
2021/01/03 11:01:41;;;;;;;3.75;3.25;;;;;;;;;;5094427;28;20572;-74
2021/01/03 11:04:08;;;;;;;3.20;2.90;;;;;;;;;;5093938;28;20179;-72
2021/01/03 11:06:35;;;;;;;5.05;3.25;;;;;;;;;;5094089;28;20199;-75
2021/01/03 11:09:02;;;;;;;4.10;3.70;;;;;;;;;;5097756;28;20653;-74
2021/01/03 11:11:28;;;;;;;3.40;3.10;;;;;;;;;;5080972;28;20307;-75
2021/01/03 11:13:54;;;;;;;6.00;4.28;;;;;;;;;;5073230;28;20224;-75
2021/01/03 11:16:20;;;;;;;3.85;3.25;;;;;;;;;;5073715;28;20168;-75
2021/01/03 11:18:46;;;;;;;3.25;2.95;;;;;;;;;;5073580;28;20259;-73
2021/01/03 11:21:15;;;;;;;4.57;3.13;;;;;;;;;;5073722;28;20219;-76
2021/01/03 11:23:41;;;;;;;3.10;2.80;;;;;;;;;;5073270;28;20249;-73
2021/01/03 11:26:07;;;;;;;2.88;2.60;;;;;;;;;;5076553;28;20652;-73
2021/01/03 11:28:33;;;;;;;3.38;2.40;;;;;;;;;;5093295;28;20171;-73
2021/01/03 11:30:59;;;;;;;3.75;3.42;;;;;;;;;;5090600;28;20192;-75
2021/01/03 11:33:25;;;;;;;3.20;2.90;;;;;;;;;;5083082;28;20193;-74
2021/01/03 11:35:51;;;;;;;4.63;4.13;;;;;;;;;;5093324;28;20221;-76
2021/01/03 11:38:17;;;;;;;3.10;2.55;;;;;;;;;;5093852;28;20184;-74
2021/01/03 11:40:43;;;;;;;3.55;3.03;;;;;;;;;;5093596;28;20214;-73
2021/01/03 11:43:09;;;;;;;3.38;3.08;;;;;;;;;;5093531;28;20179;-73
2021/01/03 11:45:35;;;;;;;3.50;2.90;;;;;;;;;;5089902;28;20176;-73
2021/01/03 11:48:02;;;;;;;2.50;2.25;;;;;;;;;;5088434;28;20236;-76
2021/01/03 11:50:29;;;;;;;3.35;2.90;;;;;;;;;;5095390;28;20282;-74
2021/01/03 11:52:55;;;;;;;3.17;2.70;;;;;;;;;;5093374;28;20191;-75
2021/01/03 11:55:21;;;;;;;3.03;2.30;;;;;;;;;;5093279;28;20175;-74
2021/01/03 11:57:47;;;;;;;3.13;2.83;;;;;;;;;;5093311;28;20182;-73
2021/01/03 12:00:14;;;;;;;3.70;2.33;;;;;;;;;;5075231;28;20242;-74
2021/01/03 12:02:41;;;;;;;3.70;2.88;;;;;;;;;;5084256;28;20207;-75
2021/01/03 12:05:08;;;;;;;3.20;2.90;;;;;;;;;;5092957;28;20171;-74
2021/01/03 12:07:34;;;;;;;2.72;2.50;;;;;;;;;;5092779;28;20195;-74
2021/01/03 12:10:01;;;;;;;4.65;2.67;;;;;;;;;;5096104;28;20362;-73
2021/01/03 12:12:27;;;;;;;3.30;3.00;;;;;;;;;;5072823;28;20645;-73
2021/01/03 12:14:53;;;;;;;2.50;2.30;;;;;;;;;;5072499;28;20180;-73
2021/01/03 12:17:20;;;;;;;3.00;2.70;;;;;;;;;;5084477;28;20187;-73
2021/01/03 12:19:47;;;;;;;2.53;2.30;;;;;;;;;;5091544;28;20176;-75
2021/01/03 12:22:13;;;;;;;2.83;2.30;;;;;;;;;;5081359;28;20169;-73
2021/01/03 12:24:40;;;;;;;4.22;3.08;;;;;;;;;;5089885;28;20607;-75
2021/01/03 12:27:09;;;;;;;3.40;2.72;;;;;;;;;;5093071;28;20171;-74
2021/01/03 12:29:35;;;;;;;4.00;3.30;;;;;;;;;;5087278;28;20187;-74
2021/01/03 12:32:04;;;;;;;3.17;2.88;;;;;;;;;;5073157;28;20196;-75
2021/01/03 12:34:30;;;;;;;4.35;3.40;;;;;;;;;;5072359;28;20243;-73
2021/01/03 12:37:04;;;;;;;4.07;2.50;;;;;;;;;;5085732;28;20171;-73
2021/01/03 12:39:30;;;;;;;5.70;3.00;;;;;;;;;;5078478;28;20599;-76
2021/01/03 12:41:57;;;;;;;3.53;3.15;;;;;;;;;;5095781;28;20183;-73
2021/01/03 12:44:23;;;;;;;3.72;3.00;;;;;;;;;;5096656;28;20628;-76
2021/01/03 12:46:49;;;;;;;3.65;3.08;;;;;;;;;;5096996;28;20190;-75
2021/01/03 12:49:15;;;;;;;3.22;2.80;;;;;;;;;;5096888;28;20171;-73
2021/01/03 12:51:41;;;;;;;5.70;3.33;;;;;;;;;;5097021;28;20199;-73
2021/01/03 12:54:08;;;;;;;5.00;2.58;;;;;;;;;;5096476;28;20302;-74
2021/01/03 12:56:36;;;;;;;3.58;2.83;;;;;;;;;;5096072;28;20540;-73
2021/01/03 12:59:03;;;;;;;3.33;2.60;;;;;;;;;;5096995;28;20262;-73
2021/01/03 13:01:31;;;;;;;3.53;2.72;;;;;;;;;;5082723;28;20193;-73
2021/01/03 13:03:58;;;;;;;3.70;2.90;;;;;;;;;;5096201;28;20577;-74
2021/01/03 13:06:24;;;;;;;7.50;2.70;;;;;;;;;;5096590;28;20186;-75
2021/01/03 13:08:50;;;;;;;4.18;2.63;;;;;;;;;;5098699;28;20182;-73
2021/01/03 13:11:16;;;;;;;3.58;2.83;;;;;;;;;;5086930;28;20620;-76
2021/01/03 13:13:42;;;;;;;4.80;3.42;;;;;;;;;;5075538;28;20208;-74
2021/01/03 13:16:08;;;;;;;3.30;2.70;;;;;;;;;;5076262;28;20204;-75
2021/01/03 13:18:34;;;;;;;5.63;3.40;;;;;;;;;;5075999;28;20179;-74
2021/01/03 13:21:01;;;;;;;4.38;3.40;;;;;;;;;;5076017;28;20643;-76
2021/01/03 13:23:27;;;;;;;3.63;2.95;;;;;;;;;;5084413;28;20171;-73
2021/01/03 13:25:53;;;;;;;4.03;3.15;;;;;;;;;;5095897;28;20210;-74
2021/01/03 13:28:19;;;;;;;3.35;3.05;;;;;;;;;;5096001;28;20642;-74
2021/01/03 13:30:45;;;;;;;5.03;3.53;;;;;;;;;;5080588;28;20251;-73
2021/01/03 13:33:11;;;;;;;3.78;3.38;;;;;;;;;;5075797;28;20254;-78
2021/01/03 13:35:37;;;;;;;5.25;3.70;;;;;;;;;;5077233;28;20584;-74
2021/01/03 13:38:04;;;;;;;4.75;3.88;;;;;;;;;;5087034;28;20176;-75
2021/01/03 13:40:30;;;;;;;5.80;3.50;;;;;;;;;;5091003;28;20198;-73
2021/01/03 13:42:56;;;;;;;3.67;3.10;;;;;;;;;;5095939;28;20178;-75
2021/01/03 13:45:22;;;;;;;4.55;3.83;;;;;;;;;;5095587;28;20187;-74
2021/01/03 13:47:49;;;;;;;4.03;3.28;;;;;;;;;;5094860;28;20265;-75
2021/01/03 13:50:15;;;;;;;5.28;3.55;;;;;;;;;;5095411;28;20548;-74
2021/01/03 13:52:44;;;;;;;4.22;3.35;;;;;;;;;;5095587;28;20198;-74
2021/01/03 13:55:15;;;;;;;4.10;3.65;;;;;;;;;;5095228;28;20206;-75
2021/01/03 13:57:41;;;;;;;5.55;3.70;;;;;;;;;;5095603;28;20176;-76
2021/01/03 14:00:08;;;;;;;4.10;3.30;;;;;;;;;;5093197;28;20222;-74
2021/01/03 14:02:35;;;;;;;4.75;3.65;;;;;;;;;;5084274;28;20167;-74
2021/01/03 14:05:02;;;;;;;4.43;3.92;;;;;;;;;;5094810;28;20203;-74
2021/01/03 14:07:28;;;;;;;5.05;4.00;;;;;;;;;;5095250;28;20195;-74
2021/01/03 14:09:54;;;;;;;4.30;3.90;;;;;;;;;;5100774;28;20181;-76
2021/01/03 14:12:20;;;;;;;6.53;4.18;;;;;;;;;;5074733;28;20183;-73
2021/01/03 14:14:46;;;;;;;4.07;3.53;;;;;;;;;;5076852;28;20178;-75
2021/01/03 14:17:13;;;;;;;3.90;3.20;;;;;;;;;;5093854;28;20694;-74
2021/01/03 14:19:39;;;;;;;4.97;3.78;;;;;;;;;;5095003;28;20178;-73
2021/01/03 14:22:06;;;;;;;4.10;3.72;;;;;;;;;;5094767;28;20602;-75
2021/01/03 14:24:32;;;;;;;6.55;3.90;;;;;;;;;;5089863;28;20253;-74
2021/01/03 14:26:58;;;;;;;7.00;5.03;;;;;;;;;;5084032;28;20614;-75
2021/01/03 14:29:26;;;;;;;5.88;4.88;;;;;;;;;;5075555;28;20219;-74
2021/01/03 14:31:53;;;;;;;6.35;4.40;;;;;;;;;;5090842;28;20210;-74
2021/01/03 14:34:31;;;;;;;5.22;4.13;;;;;;;;;;5079396;28;20836;-75